KRIW

Riverton Regional Airport

Riverton, Wyoming, USA
METAR KRIW 180153Z AUTO 02005KT 10SM CLR 28/02 A3012 RMK AO2 SLP129 T02780017
Observed Flight Rules
Aug-18 @ 01:53 UTC (35 minutes ago) Visual Flight Rules
Wind Visibility Clouds
20° at 5 knots 10 miles
  • Clear skies
Temperatures Readings
Current 28°C / 82°F
Dewpoint 2°C / 36°F
Humidity 19%
Altimeter 30.12" Hg
Pressure 1012.9 hPa
Elevation 1697
METAR KRIW 180153Z AUTO 02005KT 10SM CLR 28/02 A3012 RMK AO2 SLP129 T02780017
Observed Flight Rules
Aug-18 @ 01:53 UTC
(35 minutes ago)
VFR
Wind Visibility
20° at 5 knots 10 miles
Clouds
  • Clear skies
Temperature Dewpoint
28°C / 82°F 2°C / 36°F
Humidity Altimeter Pressure
19% 30.12" Hg 1012.9 hPa